createdAt,value
2023-03-21T00:03:09.287Z,16.40
2023-03-21T00:08:14.448Z,15.30
2023-03-21T00:13:19.269Z,14.80
2023-03-21T00:18:23.394Z,14.53
2023-03-21T00:23:29.005Z,15.40
2023-03-21T00:28:32.438Z,14.57
2023-03-21T00:33:37.291Z,14.23
2023-03-21T00:38:42.514Z,14.23
2023-03-21T00:43:46.410Z,14.60
2023-03-21T00:48:50.066Z,14.27
2023-03-21T00:53:56.354Z,13.40
2023-03-21T00:59:03.676Z,13.70
2023-03-21T01:04:10.967Z,13.63
2023-03-21T01:09:19.471Z,14.70
2023-03-21T01:14:24.879Z,13.97
2023-03-21T01:19:44.713Z,15.13
2023-03-21T01:25:05.653Z,13.70
2023-03-21T01:30:20.276Z,13.33
2023-03-21T01:35:27.003Z,11.87
2023-03-21T01:40:33.728Z,13.00
2023-03-21T01:46:24.852Z,13.43
2023-03-21T01:51:58.626Z,12.53
2023-03-21T01:57:11.405Z,13.07
2023-03-21T02:02:20.990Z,12.27
2023-03-21T02:08:01.108Z,14.83
2023-03-21T02:13:10.259Z,14.37
2023-03-21T02:18:22.879Z,12.87
2023-03-21T02:23:58.159Z,13.47
2023-03-21T02:29:10.793Z,13.90
2023-03-21T02:34:32.600Z,13.67
2023-03-21T02:39:56.480Z,14.17
2023-03-21T02:45:06.659Z,14.63
2023-03-21T02:50:17.216Z,14.63
2023-03-21T02:55:27.217Z,13.23
2023-03-21T03:00:37.232Z,14.13
2023-03-21T03:05:46.824Z,14.70
2023-03-21T03:11:07.054Z,15.17
2023-03-21T03:16:22.458Z,15.13
2023-03-21T03:21:32.526Z,14.67
2023-03-21T03:26:41.328Z,15.27
2023-03-21T03:31:52.452Z,14.87
2023-03-21T03:36:59.815Z,15.30
2023-03-21T03:42:25.394Z,16.17
2023-03-21T03:47:56.022Z,14.70
2023-03-21T03:53:17.750Z,14.50
2023-03-21T03:58:33.579Z,14.40
2023-03-21T04:03:53.022Z,14.63
2023-03-21T04:09:10.664Z,14.70
2023-03-21T04:14:25.630Z,14.30
2023-03-21T04:19:32.579Z,15.00
2023-03-21T04:24:37.587Z,14.40
2023-03-21T04:29:43.358Z,15.27
2023-03-21T04:35:22.472Z,14.17
2023-03-21T04:40:26.405Z,13.83
2023-03-21T04:45:33.692Z,13.57
2023-03-21T04:50:37.788Z,13.73
2023-03-21T04:55:42.084Z,12.70
2023-03-21T05:00:47.091Z,11.93
2023-03-21T05:05:51.005Z,14.03
2023-03-21T05:10:55.832Z,13.03
2023-03-21T05:16:04.332Z,12.47
2023-03-21T05:21:10.793Z,13.57
2023-03-21T05:26:16.761Z,12.37
2023-03-21T05:31:30.578Z,12.67
2023-03-21T05:36:43.070Z,12.93
2023-03-21T05:41:48.031Z,12.83
2023-03-21T05:46:53.395Z,11.83
2023-03-21T05:52:03.053Z,13.33
2023-03-21T05:57:07.245Z,13.20
2023-03-21T06:02:28.480Z,12.43
2023-03-21T06:07:37.219Z,13.40
2023-03-21T06:12:43.238Z,12.70
2023-03-21T06:18:20.909Z,13.17
2023-03-21T06:23:33.157Z,13.33
2023-03-21T06:28:37.953Z,11.93
2023-03-21T06:33:42.899Z,12.73
2023-03-21T06:38:47.052Z,12.30
2023-03-21T06:43:51.121Z,12.07
2023-03-21T06:48:58.970Z,12.77
2023-03-21T06:54:05.955Z,17.40
2023-03-21T06:59:17.520Z,11.93
2023-03-21T07:04:32.276Z,11.87
2023-03-21T07:09:35.909Z,11.43
2023-03-21T07:14:41.737Z,11.00
2023-03-21T07:19:46.819Z,11.67
2023-03-21T07:25:02.362Z,12.53
2023-03-21T07:30:11.726Z,12.80
2023-03-21T07:35:18.939Z,10.70
2023-03-21T07:40:22.979Z,11.07
2023-03-21T07:45:27.508Z,10.83
2023-03-21T07:50:32.675Z,11.47
2023-03-21T07:55:36.693Z,12.13
2023-03-21T08:00:40.287Z,11.20
2023-03-21T08:05:45.448Z,12.40
2023-03-21T08:10:49.151Z,12.57
2023-03-21T08:15:52.632Z,11.97
2023-03-21T08:20:58.945Z,11.50
2023-03-21T08:26:02.638Z,12.77
2023-03-21T08:31:09.458Z,12.03
2023-03-21T08:36:14.554Z,13.07
2023-03-21T08:41:19.362Z,12.70
2023-03-21T08:46:22.759Z,12.60
2023-03-21T08:51:27.669Z,12.00
2023-03-21T08:56:31.324Z,13.10
2023-03-21T09:01:37.162Z,13.57
2023-03-21T09:06:47.901Z,11.43
2023-03-21T09:11:52.575Z,12.23
2023-03-21T09:16:56.235Z,13.33
2023-03-21T09:22:01.521Z,11.67
2023-03-21T09:27:04.963Z,12.30
2023-03-21T09:32:08.726Z,11.50
2023-03-21T09:37:14.250Z,11.60
2023-03-21T09:42:32.087Z,11.83
2023-03-21T09:47:49.744Z,11.20
2023-03-21T09:52:58.283Z,11.40
2023-03-21T09:58:06.844Z,11.33
2023-03-21T10:03:19.470Z,12.20
2023-03-21T10:08:28.407Z,12.60
2023-03-21T10:13:34.956Z,13.30
2023-03-21T10:18:41.193Z,12.53
2023-03-21T10:23:46.313Z,12.23
2023-03-21T10:28:53.303Z,12.07
2023-03-21T10:34:01.397Z,11.60
2023-03-21T10:39:12.555Z,11.80
2023-03-21T10:44:18.892Z,12.67
2023-03-21T10:49:23.012Z,11.17
2023-03-21T10:54:31.563Z,11.50
2023-03-21T10:59:40.496Z,12.40
2023-03-21T11:04:46.272Z,13.03
2023-03-21T11:09:56.236Z,14.37
2023-03-21T11:15:15.281Z,14.87
2023-03-21T11:20:20.465Z,13.87
2023-03-21T11:25:34.918Z,12.90
2023-03-21T11:30:38.369Z,11.83
2023-03-21T11:35:42.124Z,13.17
2023-03-21T11:40:55.168Z,12.57
2023-03-21T11:45:59.305Z,12.97
2023-03-21T11:51:11.325Z,12.87
2023-03-21T11:56:26.658Z,12.50
2023-03-21T12:01:37.289Z,11.50
2023-03-21T12:06:46.894Z,12.13
2023-03-21T12:12:02.843Z,11.60
2023-03-21T12:17:16.349Z,11.63
2023-03-21T12:22:28.955Z,11.97
2023-03-21T12:27:46.168Z,12.17
2023-03-21T12:33:00.660Z,11.27
2023-03-21T12:38:16.155Z,10.80
2023-03-21T12:43:30.548Z,10.70
2023-03-21T12:48:43.709Z,11.10
2023-03-21T12:53:55.874Z,10.43
2023-03-21T12:59:07.683Z,10.03
2023-03-21T13:04:43.610Z,9.93
2023-03-21T13:09:48.118Z,10.13
2023-03-21T13:15:07.907Z,10.30
2023-03-21T13:20:23.415Z,10.30
2023-03-21T13:25:28.329Z,10.33
2023-03-21T13:30:33.898Z,11.30
2023-03-21T13:35:41.293Z,10.70
2023-03-21T13:40:49.005Z,11.73
2023-03-21T13:45:55.144Z,12.13
2023-03-21T13:51:03.456Z,12.13
2023-03-21T13:56:34.308Z,15.83
2023-03-21T14:01:41.420Z,15.80
2023-03-21T14:06:51.480Z,17.43
2023-03-21T14:11:58.800Z,14.37
2023-03-21T14:17:17.049Z,14.83
2023-03-21T14:22:21.396Z,14.47
2023-03-21T14:27:28.581Z,14.60
2023-03-21T14:32:41.832Z,16.67
2023-03-21T14:37:52.156Z,16.73
2023-03-21T14:43:00.798Z,17.07
2023-03-21T14:48:26.885Z,16.23
2023-03-21T14:53:35.122Z,15.70
2023-03-21T14:58:49.857Z,15.90
2023-03-21T15:03:58.191Z,16.77
2023-03-21T15:09:08.995Z,17.17
2023-03-21T15:14:28.685Z,17.37
2023-03-21T15:19:43.826Z,16.67
2023-03-21T15:24:52.593Z,19.67
2023-03-21T15:29:57.231Z,17.80
2023-03-21T15:35:37.136Z,18.33
2023-03-21T15:40:43.172Z,17.53
2023-03-21T15:45:50.410Z,18.03
2023-03-21T15:51:10.109Z,16.17
2023-03-21T15:56:18.022Z,17.27
2023-03-21T16:01:47.909Z,16.73
2023-03-21T16:07:26.201Z,16.50
2023-03-21T16:12:50.670Z,17.37
2023-03-21T16:18:00.158Z,16.23
2023-03-21T16:23:16.972Z,16.80
2023-03-21T16:28:22.203Z,16.73
2023-03-21T16:33:28.216Z,18.57
2023-03-21T16:38:34.438Z,17.03
2023-03-21T16:43:43.938Z,16.83
2023-03-21T16:48:54.445Z,15.83
2023-03-21T16:59:23.519Z,16.93
2023-03-21T17:10:00.053Z,16.87
2023-03-21T17:15:03.953Z,16.93
2023-03-21T17:20:21.181Z,18.47
2023-03-21T17:25:26.370Z,18.07
2023-03-21T17:30:31.421Z,16.80
2023-03-21T17:35:34.919Z,16.50
2023-03-21T17:40:41.743Z,17.67
2023-03-21T17:45:45.139Z,18.63
2023-03-21T17:50:48.705Z,19.90
2023-03-21T17:55:53.608Z,21.33
2023-03-21T18:00:57.333Z,21.10
2023-03-21T18:06:01.435Z,22.13
2023-03-21T18:11:07.168Z,23.67
2023-03-21T18:16:14.716Z,21.07
2023-03-21T18:21:20.402Z,22.93
2023-03-21T18:26:26.034Z,20.30
2023-03-21T18:31:29.604Z,18.43
2023-03-21T18:36:33.633Z,18.27
2023-03-21T18:41:41.836Z,18.87
2023-03-21T18:46:47.501Z,18.00
2023-03-21T18:51:51.419Z,19.73
2023-03-21T19:02:23.421Z,21.83
2023-03-21T19:07:27.402Z,22.30
2023-03-21T19:12:32.344Z,21.87
2023-03-21T19:22:59.536Z,22.97
2023-03-21T19:28:04.618Z,24.87
2023-03-21T19:33:08.508Z,24.03
2023-03-21T19:38:12.785Z,23.37
2023-03-21T19:43:32.204Z,19.00
2023-03-21T19:48:38.396Z,18.47
2023-03-21T19:53:42.003Z,18.03
2023-03-21T19:58:47.608Z,17.10
2023-03-21T20:03:51.638Z,16.43
2023-03-21T20:09:41.344Z,15.13
2023-03-21T20:14:20.702Z,15.23
2023-03-21T20:19:24.255Z,15.93
2023-03-21T20:24:28.239Z,15.60
2023-03-21T20:30:08.854Z,14.90
2023-03-21T20:35:10.216Z,14.70
2023-03-21T20:40:21.710Z,13.63
2023-03-21T20:45:27.987Z,13.23
2023-03-21T20:50:33.131Z,12.70
2023-03-21T20:55:38.226Z,12.20
2023-03-21T21:00:44.522Z,12.37
2023-03-21T21:05:48.099Z,12.80
2023-03-21T21:11:30.195Z,13.27
2023-03-21T21:16:17.061Z,12.80
2023-03-21T21:21:20.919Z,13.43
2023-03-21T21:26:24.676Z,12.97
2023-03-21T21:31:29.976Z,13.77
2023-03-21T21:36:33.764Z,12.97
2023-03-21T21:41:37.558Z,13.10
2023-03-21T21:46:42.931Z,12.10
2023-03-21T21:51:47.856Z,12.87
2023-03-21T21:56:54.164Z,12.23
2023-03-21T22:01:59.144Z,14.43
2023-03-21T22:07:06.155Z,13.90
2023-03-21T22:12:10.211Z,12.97
2023-03-21T22:17:15.017Z,13.60
2023-03-21T22:22:18.440Z,13.23
2023-03-21T22:27:21.777Z,13.33
2023-03-21T22:32:27.026Z,13.80
2023-03-21T22:37:30.642Z,12.80
2023-03-21T22:42:35.450Z,13.37
2023-03-21T22:47:42.869Z,15.40
2023-03-21T22:52:46.615Z,13.63
2023-03-21T22:57:50.091Z,15.00
2023-03-21T23:02:55.341Z,15.67
2023-03-21T23:07:58.773Z,14.73
2023-03-21T23:13:02.234Z,13.53
2023-03-21T23:18:07.582Z,14.17
2023-03-21T23:23:10.951Z,14.20
2023-03-21T23:28:14.608Z,14.00
2023-03-21T23:33:19.646Z,12.47
2023-03-21T23:38:22.980Z,12.67
2023-03-21T23:43:26.338Z,14.30
2023-03-21T23:48:31.302Z,12.87
2023-03-21T23:53:34.712Z,12.00
2023-03-21T23:58:38.140Z,11.83
